Time;durP1;ratioP1;P1;durP2;ratioP2;P2;SDS_P1;SDS_P2;PMS_P1;PMS_P2;Temp;Humidity;BMP_temperature;BMP_pressure;BME280_temperature;BME280_humidity;BME280_pressure;Samples;Min_cycle;Max_cycle;Signal;HPM_P1;HPM_P2
2022/09/25 00:01:34;;;;;;;22.95;16.48;;;21.30;55.70;;;;;;5030897;28;20033;-65
2022/09/25 00:04:01;;;;;;;20.58;15.13;;;21.30;55.60;;;;;;5029757;28;20044;-65
2022/09/25 00:06:27;;;;;;;22.52;15.48;;;21.30;55.70;;;;;;5031114;28;20497;-65
2022/09/25 00:08:53;;;;;;;19.42;15.15;;;21.30;55.60;;;;;;5031207;28;20025;-66
2022/09/25 00:11:22;;;;;;;21.67;15.07;;;21.30;55.70;;;;;;5031085;28;20025;-65
2022/09/25 00:13:49;;;;;;;20.85;14.65;;;21.30;55.70;;;;;;5030338;28;20031;-65
2022/09/25 00:16:18;;;;;;;20.83;14.90;;;21.30;56.20;;;;;;5030879;28;20448;-65
2022/09/25 00:21:30;;;;;;;19.15;13.73;;;21.30;55.70;;;;;;5031340;28;19938;-65
2022/09/25 00:23:58;;;;;;;19.95;13.98;;;21.30;55.70;;;;;;5030638;28;20370;-65
2022/09/25 00:26:30;;;;;;;20.38;14.63;;;21.30;55.70;;;;;;5029464;28;20029;-65
2022/09/25 00:28:56;;;;;;;19.30;14.18;;;21.30;55.70;;;;;;5030918;28;20477;-65
2022/09/25 00:31:25;;;;;;;19.75;14.10;;;21.30;55.70;;;;;;5030436;28;20041;-65
2022/09/25 00:33:51;;;;;;;17.35;13.25;;;21.20;55.70;;;;;;5030687;28;20042;-65
2022/09/25 00:36:17;;;;;;;18.45;13.07;;;21.20;55.70;;;;;;5030859;28;20045;-65
2022/09/25 00:38:47;;;;;;;19.27;14.13;;;21.20;55.70;;;;;;5030621;28;20055;-65
2022/09/25 00:41:12;;;;;;;;;;;21.20;55.70;;;;;;5031277;28;20028;-65
2022/09/25 00:43:43;;;;;;;17.95;13.32;;;21.20;55.70;;;;;;5030672;28;20322;-66
2022/09/25 00:46:12;;;;;;;20.27;14.10;;;21.20;55.70;;;;;;5030733;28;20376;-66
2022/09/25 00:48:47;;;;;;;20.47;14.30;;;21.20;55.70;;;;;;5030346;28;20029;-65
2022/09/25 00:51:14;;;;;;;17.90;13.70;;;21.20;55.70;;;;;;5029889;28;20182;-66
2022/09/25 00:53:40;;;;;;;17.77;12.85;;;21.20;55.70;;;;;;5029864;28;20025;-65
2022/09/25 00:56:08;;;;;;;18.27;13.27;;;21.20;55.70;;;;;;5030527;28;20342;-66
2022/09/25 00:58:36;;;;;;;16.67;12.65;;;21.20;55.80;;;;;;5030459;28;20029;-66
2022/09/25 01:01:02;;;;;;;17.02;13.02;;;21.10;55.70;;;;;;5030011;28;20246;-66
2022/09/25 01:03:28;;;;;;;16.77;12.38;;;21.10;55.70;;;;;;5030547;28;20138;-66
2022/09/25 01:05:55;;;;;;;17.17;12.93;;;21.20;55.70;;;;;;5030426;28;20100;-66
2022/09/25 01:08:24;;;;;;;17.27;12.70;;;21.10;55.70;;;;;;5029780;28;20029;-66
2022/09/25 01:10:50;;;;;;;17.30;12.68;;;21.10;55.70;;;;;;5030504;28;20037;-66
2022/09/25 01:13:16;;;;;;;16.50;12.32;;;21.10;55.70;;;;;;5030390;28;20025;-66
2022/09/25 01:16:07;;;;;;;15.55;11.63;;;21.20;55.80;;;;;;5028337;28;20053;-66
2022/09/25 01:19:09;;;;;;;16.30;11.68;;;21.10;55.80;;;;;;5028199;28;20481;-66
2022/09/25 01:21:53;;;;;;;14.88;11.18;;;21.10;55.80;;;;;;5030048;28;20488;-65
2022/09/25 01:24:56;;;;;;;14.60;11.25;;;21.10;55.80;;;;;;5029793;28;20552;-65
2022/09/25 01:27:44;;;;;;;15.98;11.32;;;21.10;55.80;;;;;;5029960;28;20108;-65
2022/09/25 01:30:14;;;;;;;15.57;10.95;;;21.10;55.70;;;;;;5029895;28;20384;-64
2022/09/25 01:32:54;;;;;;;15.43;11.43;;;21.10;55.80;;;;;;5030096;28;20025;-64
2022/09/25 01:35:38;;;;;;;16.73;11.48;;;21.10;55.80;;;;;;5030157;28;20090;-65
2022/09/25 01:38:15;;;;;;;14.77;10.88;;;21.10;55.80;;;;;;5032860;28;20025;-65
2022/09/25 01:40:52;;;;;;;14.65;10.93;;;21.10;55.80;;;;;;5033523;28;20079;-65
2022/09/25 01:43:46;;;;;;;14.55;10.85;;;21.00;55.70;;;;;;5033808;28;20022;-65
2022/09/25 01:46:12;;;;;;;14.48;11.10;;;21.00;55.90;;;;;;5007824;28;20048;-66
2022/09/25 01:48:40;;;;;;;12.73;10.27;;;21.00;55.80;;;;;;5033717;28;20053;-64
2022/09/25 01:51:24;;;;;;;13.43;10.40;;;21.00;55.70;;;;;;5031999;28;20108;-65
2022/09/25 01:53:57;;;;;;;15.38;11.30;;;21.00;55.80;;;;;;5033284;28;20030;-65
2022/09/25 01:56:31;;;;;;;14.18;10.65;;;21.00;55.80;;;;;;5033589;28;20029;-65
2022/09/25 01:59:03;;;;;;;14.05;10.15;;;21.00;55.80;;;;;;5033421;28;20140;-65
2022/09/25 02:01:33;;;;;;;14.75;10.82;;;21.00;55.70;;;;;;5033077;28;20120;-66
2022/09/25 02:04:05;;;;;;;13.68;10.30;;;21.00;55.80;;;;;;5033497;28;20032;-65
2022/09/25 02:06:33;;;;;;;14.20;10.52;;;21.00;55.70;;;;;;5033125;28;20456;-65
2022/09/25 02:09:05;;;;;;;13.02;9.48;;;21.00;56.00;;;;;;5033367;28;20489;-65
2022/09/25 02:11:34;;;;;;;14.25;9.90;;;21.00;55.80;;;;;;5033459;28;20064;-65
2022/09/25 02:14:10;;;;;;;13.30;10.18;;;21.00;55.80;;;;;;5032429;28;20045;-64
2022/09/25 02:16:43;;;;;;;12.75;9.27;;;21.00;55.80;;;;;;5032896;28;20049;-66
2022/09/25 02:22:03;;;;;;;11.18;9.32;;;21.00;56.30;;;;;;5031856;28;20037;-66
2022/09/25 02:24:34;;;;;;;12.98;9.52;;;21.00;55.70;;;;;;5033018;28;20033;-66
2022/09/25 02:27:00;;;;;;;11.75;9.25;;;21.00;55.80;;;;;;5032574;28;20018;-66
2022/09/25 02:29:25;;;;;;;12.27;9.35;;;21.00;55.70;;;;;;5033065;28;20037;-67
2022/09/25 02:31:54;;;;;;;12.63;9.52;;;21.00;55.80;;;;;;5032558;28;20061;-65
2022/09/25 02:34:21;;;;;;;13.02;9.32;;;20.90;55.70;;;;;;5032866;28;20208;-66
2022/09/25 02:36:47;;;;;;;11.10;8.77;;;20.90;55.70;;;;;;5032961;28;20026;-64
2022/09/25 02:39:16;;;;;;;10.73;8.32;;;20.90;55.70;;;;;;5032772;28;20388;-65
2022/09/25 02:41:51;;;;;;;12.82;8.93;;;20.90;55.70;;;;;;5032887;28;20435;-65
2022/09/25 02:44:49;;;;;;;11.55;8.93;;;20.90;55.80;;;;;;5032708;28;20017;-65
2022/09/25 02:47:51;;;;;;;11.25;8.93;;;20.90;55.70;;;;;;5032103;28;20025;-66
2022/09/25 02:50:35;;;;;;;12.00;8.90;;;20.90;55.70;;;;;;5031952;28;20021;-64
2022/09/25 02:53:12;;;;;;;11.20;8.90;;;20.90;55.80;;;;;;5030269;28;20473;-64
2022/09/25 02:55:48;;;;;;;11.27;8.68;;;20.90;55.70;;;;;;5032613;28;20057;-66
2022/09/25 02:58:45;;;;;;;12.48;9.15;;;20.90;55.80;;;;;;5032401;28;20503;-66
2022/09/25 03:01:14;;;;;;;11.60;8.65;;;20.90;55.80;;;;;;5030713;28;20128;-65
2022/09/25 03:03:42;;;;;;;10.60;8.45;;;20.90;55.80;;;;;;5032277;28;20025;-66
2022/09/25 03:06:09;;;;;;;9.95;8.32;;;20.90;55.80;;;;;;5032303;28;20091;-65
2022/09/25 03:08:38;;;;;;;10.55;8.43;;;20.90;55.80;;;;;;5032298;28;20048;-65
2022/09/25 03:11:08;;;;;;;11.15;8.68;;;20.90;55.80;;;;;;5032225;28;20496;-66
2022/09/25 03:13:34;;;;;;;11.05;8.27;;;20.90;55.80;;;;;;5031729;28;20901;-65
2022/09/25 03:16:13;;;;;;;11.07;8.40;;;20.90;55.80;;;;;;5032053;28;20362;-66
2022/09/25 03:18:39;;;;;;;11.03;8.43;;;20.90;55.80;;;;;;5030785;28;20120;-66
2022/09/25 03:21:04;;;;;;;10.70;8.13;;;20.80;55.70;;;;;;5032114;28;20346;-65
2022/09/25 03:23:31;;;;;;;11.25;8.52;;;20.80;55.70;;;;;;5031948;28;20530;-65
2022/09/25 03:25:57;;;;;;;10.63;7.97;;;20.80;55.70;;;;;;5031874;28;20043;-64
2022/09/25 03:28:23;;;;;;;10.38;8.32;;;20.80;55.70;;;;;;5031836;28;20021;-66
2022/09/25 03:31:10;;;;;;;10.77;8.90;;;20.90;55.80;;;;;;5031422;28;20038;-65
2022/09/25 03:33:38;;;;;;;10.23;7.72;;;20.80;55.70;;;;;;5031587;28;20037;-65
2022/09/25 03:36:19;;;;;;;11.85;8.38;;;20.80;55.70;;;;;;5029705;28;20028;-64
2022/09/25 03:38:47;;;;;;;11.82;8.23;;;20.80;55.70;;;;;;5030473;28;20056;-66
2022/09/25 03:41:15;;;;;;;10.30;7.85;;;20.80;55.70;;;;;;5031682;28;20028;-66
2022/09/25 03:43:42;;;;;;;10.23;7.75;;;20.80;55.70;;;;;;5031480;28;20041;-66
2022/09/25 03:46:13;;;;;;;9.98;7.68;;;20.80;55.80;;;;;;5031518;28;20370;-65
2022/09/25 03:48:39;;;;;;;9.45;7.47;;;20.80;55.80;;;;;;5031399;28;20025;-64
2022/09/25 03:51:06;;;;;;;10.25;7.88;;;20.80;55.80;;;;;;5031442;28;20496;-66
2022/09/25 03:53:32;;;;;;;9.75;7.70;;;20.80;56.30;;;;;;5031399;28;20040;-64
2022/09/25 03:56:03;;;;;;;9.13;7.43;;;20.80;55.80;;;;;;5031395;28;20033;-65
2022/09/25 03:58:29;;;;;;;10.23;7.50;;;20.80;55.80;;;;;;5030989;28;20025;-65
2022/09/25 04:00:56;;;;;;;9.85;7.63;;;20.80;55.80;;;;;;5030234;28;20041;-64
2022/09/25 04:03:27;;;;;;;9.73;8.23;;;20.80;55.80;;;;;;5031192;28;20033;-65
2022/09/25 04:05:54;;;;;;;9.13;7.38;;;20.80;55.80;;;;;;5031220;28;20064;-66
2022/09/25 04:08:20;;;;;;;9.35;7.65;;;20.80;55.80;;;;;;5031119;28;20022;-65
2022/09/25 04:10:46;;;;;;;9.40;7.50;;;20.80;55.80;;;;;;5031102;28;20029;-66
2022/09/25 04:13:12;;;;;;;9.20;7.07;;;20.80;55.70;;;;;;5030466;28;20028;-66
2022/09/25 04:15:39;;;;;;;9.80;7.32;;;20.80;55.80;;;;;;5031015;28;20053;-66
2022/09/25 04:18:05;;;;;;;8.73;6.82;;;20.70;55.70;;;;;;5030811;28;20480;-66
2022/09/25 04:20:31;;;;;;;8.55;7.03;;;20.80;55.70;;;;;;5031059;28;20079;-65
2022/09/25 04:22:57;;;;;;;10.23;7.32;;;20.70;55.70;;;;;;5030972;28;20469;-65
2022/09/25 04:25:24;;;;;;;9.23;7.00;;;20.80;55.80;;;;;;5030935;28;20029;-66
2022/09/25 04:27:54;;;;;;;8.80;7.05;;;20.80;55.80;;;;;;5030248;28;20025;-65
2022/09/25 04:30:20;;;;;;;8.90;6.72;;;20.80;55.70;;;;;;5029461;28;20049;-65
2022/09/25 04:35:30;;;;;;;9.32;7.13;;;20.70;55.70;;;;;;5030932;28;20063;-65
2022/09/25 04:37:56;;;;;;;8.90;6.68;;;20.80;55.80;;;;;;5030788;28;20123;-65
2022/09/25 04:40:21;;;;;;;8.80;7.10;;;20.70;55.70;;;;;;5030834;28;20033;-65
2022/09/25 04:42:47;;;;;;;7.93;6.45;;;20.70;55.70;;;;;;5013056;28;20021;-65
2022/09/25 04:45:13;;;;;;;8.35;6.47;;;20.70;55.80;;;;;;5030737;28;20102;-65
2022/09/25 04:47:39;;;;;;;9.32;6.88;;;20.70;55.70;;;;;;5030354;28;20026;-65
2022/09/25 04:50:05;;;;;;;9.27;7.10;;;20.70;55.80;;;;;;5030677;28;20076;-65
2022/09/25 04:52:31;;;;;;;8.30;6.57;;;20.70;55.80;;;;;;5030013;28;20511;-65
2022/09/25 04:54:56;;;;;;;8.50;6.50;;;20.70;55.70;;;;;;5030685;28;20025;-65
2022/09/25 04:57:22;;;;;;;8.10;6.30;;;20.70;55.80;;;;;;5030600;28;20061;-65
2022/09/25 04:59:49;;;;;;;7.53;6.07;;;20.70;55.80;;;;;;5030547;28;20025;-65
2022/09/25 05:02:18;;;;;;;8.20;6.45;;;20.70;55.80;;;;;;5030184;28;20033;-65
2022/09/25 05:04:44;;;;;;;8.13;6.32;;;20.70;55.80;;;;;;5029074;28;20057;-65
2022/09/25 05:07:09;;;;;;;7.57;5.82;;;20.70;55.70;;;;;;5030516;28;20064;-65
2022/09/25 05:09:36;;;;;;;7.75;6.18;;;20.70;55.80;;;;;;5030277;28;20029;-65
2022/09/25 05:12:01;;;;;;;7.85;6.07;;;20.70;55.70;;;;;;5033282;28;20064;-65
2022/09/25 05:14:29;;;;;;;7.85;6.15;;;20.70;55.70;;;;;;5034733;28;20065;-65
2022/09/25 05:16:55;;;;;;;7.85;6.18;;;20.70;55.80;;;;;;5034083;28;20098;-65
2022/09/25 05:19:21;;;;;;;8.32;6.40;;;20.70;55.70;;;;;;5034226;28;20448;-65
2022/09/25 05:21:46;;;;;;;7.85;6.32;;;20.70;55.70;;;;;;5034399;28;20036;-65
2022/09/25 05:24:12;;;;;;;7.75;5.95;;;20.70;55.80;;;;;;5016523;28;20492;-65
2022/09/25 05:26:39;;;;;;;7.30;5.95;;;20.70;55.80;;;;;;5034203;28;20056;-65
2022/09/25 05:29:05;;;;;;;7.10;6.03;;;20.70;55.70;;;;;;5034083;28;20036;-66
2022/09/25 05:31:31;;;;;;;7.25;5.72;;;20.70;55.70;;;;;;5033835;28;20067;-65
2022/09/25 05:33:57;;;;;;;7.85;6.32;;;20.70;55.80;;;;;;5033902;28;20083;-66
2022/09/25 05:36:23;;;;;;;7.28;5.75;;;20.70;55.70;;;;;;5034054;28;20026;-66
2022/09/25 05:38:49;;;;;;;6.72;5.50;;;20.70;55.70;;;;;;5033980;28;20509;-66
2022/09/25 05:41:15;;;;;;;7.63;5.65;;;20.70;55.80;;;;;;5033955;28;20025;-66
2022/09/25 05:43:43;;;;;;;7.20;5.63;;;20.70;55.70;;;;;;5034001;28;20614;-66
2022/09/25 05:46:09;;;;;;;7.82;5.95;;;20.60;55.70;;;;;;5033208;28;20059;-65
2022/09/25 05:48:35;;;;;;;6.85;5.78;;;20.70;55.70;;;;;;5033814;28;20393;-65
2022/09/25 05:51:01;;;;;;;6.45;5.05;;;20.70;55.70;;;;;;5033896;28;20030;-66
2022/09/25 05:53:27;;;;;;;6.30;5.28;;;20.70;55.80;;;;;;5033724;28;20033;-66
2022/09/25 05:55:58;;;;;;;7.70;5.88;;;20.60;55.70;;;;;;5033630;28;20150;-66
2022/09/25 05:58:28;;;;;;;7.55;5.70;;;20.70;55.80;;;;;;5033580;28;20033;-66
2022/09/25 06:00:54;;;;;;;7.22;5.40;;;20.70;55.80;;;;;;5033208;28;20562;-65
2022/09/25 06:03:20;;;;;;;6.65;5.13;;;20.60;55.70;;;;;;5033460;28;20155;-65
2022/09/25 06:05:46;;;;;;;6.55;5.20;;;20.70;55.70;;;;;;5033664;28;20469;-64
2022/09/25 06:08:13;;;;;;;6.38;4.95;;;20.60;55.70;;;;;;5033402;28;20022;-66
2022/09/25 06:10:39;;;;;;;6.35;5.20;;;20.60;56.30;;;;;;5033295;28;20025;-66
2022/09/25 06:13:05;;;;;;;6.05;5.00;;;20.60;55.80;;;;;;5033332;28;20025;-65
2022/09/25 06:15:40;;;;;;;6.40;5.15;;;20.60;55.80;;;;;;5033173;28;20148;-66
2022/09/25 06:18:07;;;;;;;6.70;5.15;;;20.60;55.90;;;;;;5032693;28;20022;-65
2022/09/25 06:20:34;;;;;;;6.20;4.75;;;20.60;55.80;;;;;;5033140;28;20362;-65
2022/09/25 06:23:00;;;;;;;5.75;4.95;;;20.60;55.80;;;;;;5032128;28;20021;-66
2022/09/25 06:25:28;;;;;;;6.38;4.78;;;20.60;55.90;;;;;;5033034;28;20025;-66
2022/09/25 06:27:56;;;;;;;6.60;4.90;;;20.60;55.90;;;;;;5032926;28;20029;-66
2022/09/25 06:30:23;;;;;;;5.75;4.80;;;20.60;55.90;;;;;;5031414;28;20044;-66
2022/09/25 06:32:58;;;;;;;5.85;4.80;;;20.60;55.90;;;;;;5032875;28;20120;-65
2022/09/25 06:35:24;;;;;;;6.40;5.07;;;20.60;55.90;;;;;;5032274;28;20021;-65
2022/09/25 06:37:50;;;;;;;5.97;4.47;;;20.60;55.90;;;;;;5032723;28;20025;-66
2022/09/25 06:40:16;;;;;;;6.15;4.95;;;20.60;56.00;;;;;;5032834;28;20362;-66
2022/09/25 06:42:41;;;;;;;5.80;4.50;;;20.60;56.00;;;;;;5032693;28;20026;-65
2022/09/25 06:45:09;;;;;;;5.53;4.35;;;20.60;56.00;;;;;;5032660;28;20036;-65
2022/09/25 06:47:35;;;;;;;5.63;4.65;;;20.60;56.00;;;;;;5032075;28;20111;-66
2022/09/25 06:50:00;;;;;;;6.03;4.80;;;20.60;56.00;;;;;;5032522;28;20493;-66
2022/09/25 06:52:26;;;;;;;5.85;4.18;;;20.60;56.00;;;;;;5032526;28;20049;-66
2022/09/25 06:54:51;;;;;;;5.68;4.40;;;20.60;56.00;;;;;;5032369;28;20053;-66
2022/09/25 06:57:17;;;;;;;5.55;4.15;;;20.60;56.50;;;;;;5032281;28;20036;-66
2022/09/25 06:59:43;;;;;;;6.18;4.30;;;20.50;56.00;;;;;;5031885;28;20365;-66
2022/09/25 07:04:53;;;;;;;5.68;4.03;;;20.60;56.00;;;;;;5032041;28;20148;-66
2022/09/25 07:07:19;;;;;;;5.00;3.95;;;20.60;56.00;;;;;;5032281;28;20029;-65
2022/09/25 07:09:47;;;;;;;5.43;4.38;;;20.60;56.00;;;;;;5032220;28;20028;-66
2022/09/25 07:12:13;;;;;;;6.15;4.75;;;20.50;55.90;;;;;;5032129;28;20050;-66
2022/09/25 07:14:40;;;;;;;5.60;3.95;;;20.60;56.00;;;;;;5032177;28;20026;-66
2022/09/25 07:17:06;;;;;;;5.75;4.10;;;20.60;56.00;;;;;;5031881;28;20493;-66
2022/09/25 07:19:32;;;;;;;5.45;4.13;;;20.60;56.00;;;;;;5032045;28;20393;-66
2022/09/25 07:21:58;;;;;;;5.85;4.50;;;20.50;56.00;;;;;;5032000;28;20021;-65
2022/09/25 07:24:24;;;;;;;5.60;4.40;;;20.60;56.00;;;;;;5031935;28;20026;-66
2022/09/25 07:26:51;;;;;;;5.53;4.10;;;20.60;56.00;;;;;;5031896;28;20087;-66
2022/09/25 07:29:17;;;;;;;4.72;4.03;;;20.60;56.00;;;;;;5031925;28;20028;-66
2022/09/25 07:31:43;;;;;;;4.82;3.90;;;20.50;55.90;;;;;;5031354;28;20037;-66
2022/09/25 07:34:08;;;;;;;5.40;3.92;;;20.50;55.90;;;;;;5031575;28;20028;-66
2022/09/25 07:36:37;;;;;;;5.45;4.18;;;20.60;56.00;;;;;;5031777;28;20140;-66
2022/09/25 07:39:03;;;;;;;5.10;4.05;;;20.60;56.00;;;;;;5030720;28;20034;-66
2022/09/25 07:41:29;;;;;;;5.20;4.40;;;20.50;56.50;;;;;;5031704;28;20095;-66
2022/09/25 07:43:58;;;;;;;4.70;3.63;;;20.50;56.00;;;;;;5031536;28;20451;-66
2022/09/25 07:46:25;;;;;;;5.78;4.38;;;20.60;56.00;;;;;;5031626;28;20026;-66
2022/09/25 07:48:51;;;;;;;5.07;3.85;;;20.60;56.00;;;;;;5031518;28;20087;-66
2022/09/25 07:51:17;;;;;;;5.75;4.20;;;20.50;56.00;;;;;;5013625;28;20490;-66
2022/09/25 07:53:44;;;;;;;5.00;3.97;;;20.50;56.00;;;;;;5030918;28;20028;-66
2022/09/25 07:56:10;;;;;;;5.22;3.95;;;20.60;56.00;;;;;;5031382;28;20038;-66
2022/09/25 07:58:37;;;;;;;5.10;3.72;;;20.50;56.00;;;;;;5031168;28;20034;-66
2022/09/25 08:01:06;;;;;;;4.45;3.65;;;20.50;56.00;;;;;;5030908;28;20583;-66
2022/09/25 08:03:32;;;;;;;5.20;3.67;;;20.50;56.00;;;;;;5029602;28;20485;-66
2022/09/25 08:06:10;;;;;;;5.05;3.95;;;20.50;56.00;;;;;;5031274;28;20025;-66
2022/09/25 08:08:36;;;;;;;5.15;3.90;;;20.50;56.00;;;;;;5030886;28;20021;-66
2022/09/25 08:11:10;;;;;;;5.15;3.95;;;20.50;55.90;;;;;;5030737;28;20427;-65
2022/09/25 08:13:37;;;;;;;5.03;3.63;;;20.50;56.00;;;;;;5030714;28;20025;-65
2022/09/25 08:16:04;;;;;;;5.15;3.97;;;20.50;56.00;;;;;;5030960;28;20048;-66
2022/09/25 08:18:30;;;;;;;5.93;3.60;;;20.50;55.90;;;;;;5030920;28;20033;-66
2022/09/25 08:21:03;;;;;;;5.72;4.07;;;20.50;56.00;;;;;;5030972;28;20581;-66
2022/09/25 08:23:29;;;;;;;4.88;3.70;;;20.50;55.90;;;;;;5030269;28;20477;-65
2022/09/25 08:25:54;;;;;;;4.82;3.75;;;20.50;55.90;;;;;;5030854;28;20078;-66
2022/09/25 08:28:21;;;;;;;4.90;3.80;;;20.50;55.90;;;;;;5030455;28;20477;-66
2022/09/25 08:30:47;;;;;;;5.47;3.85;;;20.50;55.90;;;;;;5030527;28;20057;-66
2022/09/25 08:33:13;;;;;;;4.30;3.35;;;20.50;55.90;;;;;;5030734;28;20064;-66
2022/09/25 08:35:42;;;;;;;5.25;3.70;;;20.50;55.90;;;;;;5030793;28;20504;-66
2022/09/25 08:38:08;;;;;;;4.57;3.58;;;20.50;55.90;;;;;;5030742;28;20091;-66
2022/09/25 08:40:50;;;;;;;4.57;3.60;;;20.50;55.90;;;;;;5030754;28;20052;-66
2022/09/25 08:43:20;;;;;;;4.78;3.88;;;20.50;55.90;;;;;;5029627;28;20057;-65
2022/09/25 08:49:08;;;;;;;4.43;3.22;;;20.50;55.90;;;;;;5037599;28;20121;-66
2022/09/25 08:51:34;;;;;;;5.20;3.30;;;20.50;55.90;;;;;;5034855;28;20112;-66
2022/09/25 08:54:00;;;;;;;4.25;3.20;;;20.50;55.90;;;;;;5037227;28;20109;-66
2022/09/25 08:56:31;;;;;;;4.10;3.10;;;20.50;55.90;;;;;;5037271;28;20033;-66
2022/09/25 08:59:29;;;;;;;4.85;3.40;;;20.50;55.90;;;;;;5037066;28;20056;-65
2022/09/25 09:02:01;;;;;;;4.78;3.25;;;20.50;56.00;;;;;;5035622;28;20124;-66
2022/09/25 09:04:34;;;;;;;4.43;3.58;;;20.50;56.00;;;;;;5037196;28;20041;-65
2022/09/25 09:07:09;;;;;;;4.88;3.50;;;20.50;55.90;;;;;;5037069;28;20061;-65
2022/09/25 09:09:41;;;;;;;4.13;3.30;;;20.50;55.90;;;;;;5036155;28;20397;-66
2022/09/25 09:12:13;;;;;;;4.30;3.17;;;20.50;56.40;;;;;;5037099;28;20425;-65
2022/09/25 09:14:51;;;;;;;4.57;3.40;;;20.50;55.90;;;;;;5036959;28;20476;-66
2022/09/25 09:17:23;;;;;;;4.93;3.35;;;20.50;56.00;;;;;;5037063;28;20040;-66
2022/09/25 09:20:01;;;;;;;4.63;3.58;;;20.50;56.00;;;;;;5035643;28;20040;-66
2022/09/25 09:22:36;;;;;;;4.60;3.40;;;20.50;56.00;;;;;;5036427;28;20032;-66
2022/09/25 09:25:30;;;;;;;4.63;3.35;;;20.50;56.00;;;;;;5036740;28;20025;-66
2022/09/25 09:28:01;;;;;;;4.00;3.00;;;20.50;56.00;;;;;;5034970;28;20562;-66
2022/09/25 09:30:40;;;;;;;4.32;3.20;;;20.50;56.00;;;;;;5036443;28;20092;-66
2022/09/25 09:33:24;;;;;;;4.45;3.63;;;20.50;56.00;;;;;;5036775;28;20032;-66
2022/09/25 09:36:15;;;;;;;4.70;3.50;;;20.50;56.00;;;;;;5010538;28;20164;-66
2022/09/25 09:38:54;;;;;;;4.22;3.15;;;20.50;56.00;;;;;;5036686;28;20040;-66
2022/09/25 09:41:48;;;;;;;4.65;3.45;;;20.50;56.00;;;;;;5035942;28;20017;-65
2022/09/25 09:44:26;;;;;;;4.38;3.30;;;20.50;56.00;;;;;;5036864;28;20056;-66
2022/09/25 09:47:21;;;;;;;4.32;3.40;;;20.50;56.00;;;;;;5035663;28;20033;-66
2022/09/25 09:50:17;;;;;;;4.18;3.20;;;20.50;56.10;;;;;;5036327;28;20528;-65
2022/09/25 09:52:44;;;;;;;4.90;3.28;;;20.50;56.10;;;;;;5025219;28;20073;-65
2022/09/25 09:55:34;;;;;;;4.72;2.97;;;20.50;56.00;;;;;;5036143;28;20022;-66
2022/09/25 09:58:06;;;;;;;4.32;3.30;;;20.50;56.10;;;;;;5034439;28;20111;-65
2022/09/25 10:00:33;;;;;;;5.05;3.00;;;20.40;56.00;;;;;;5033098;28;20034;-65
2022/09/25 10:03:15;;;;;;;4.43;3.25;;;20.50;56.10;;;;;;5033452;28;20017;-65
2022/09/25 10:05:47;;;;;;;3.85;3.10;;;20.50;56.10;;;;;;5032905;28;20433;-66
2022/09/25 10:08:13;;;;;;;4.50;3.20;;;20.50;56.10;;;;;;5031439;28;20528;-66
2022/09/25 10:10:50;;;;;;;4.10;2.88;;;20.50;56.10;;;;;;5033437;28;20710;-66
2022/09/25 10:13:21;;;;;;;4.03;3.20;;;20.50;56.20;;;;;;5033324;28;20025;-65
2022/09/25 10:15:52;;;;;;;4.15;3.05;;;20.40;56.10;;;;;;5033176;28;20389;-65
2022/09/25 10:18:20;;;;;;;3.95;3.20;;;20.50;56.10;;;;;;5032676;28;20554;-66
2022/09/25 10:20:57;;;;;;;4.30;3.42;;;20.50;56.20;;;;;;5033151;28;20112;-66
2022/09/25 10:23:37;;;;;;;4.40;3.30;;;20.50;56.20;;;;;;5033106;28;20029;-65
2022/09/25 10:26:22;;;;;;;3.92;3.08;;;20.40;56.20;;;;;;5033196;28;20457;-66
2022/09/25 10:28:48;;;;;;;4.00;3.10;;;20.50;56.20;;;;;;5031588;28;20034;-66
2022/09/25 10:31:15;;;;;;;4.55;3.28;;;20.40;56.10;;;;;;5032520;28;20319;-65
2022/09/25 10:33:41;;;;;;;4.60;3.25;;;20.40;56.20;;;;;;5033015;28;20037;-66
2022/09/25 10:36:06;;;;;;;3.83;2.88;;;20.50;56.20;;;;;;5032803;28;20449;-66
2022/09/25 10:38:43;;;;;;;4.78;3.03;;;20.40;56.20;;;;;;5032795;28;20061;-66
2022/09/25 10:41:16;;;;;;;4.90;3.20;;;20.40;56.20;;;;;;5032271;28;20393;-66
2022/09/25 10:43:54;;;;;;;4.57;2.95;;;20.40;56.20;;;;;;5031197;28;20026;-65
2022/09/25 10:52:14;;;;;;;5.47;2.92;;;20.40;56.20;;;;;;5031697;28;20037;-65
2022/09/25 10:54:40;;;;;;;3.78;2.90;;;20.40;56.20;;;;;;5031895;28;20183;-66
2022/09/25 10:57:25;;;;;;;4.30;3.33;;;20.40;56.30;;;;;;5032502;28;20049;-66
2022/09/25 10:59:51;;;;;;;3.90;2.95;;;20.40;56.30;;;;;;5032372;28;20112;-66
2022/09/25 11:02:44;;;;;;;4.28;3.10;;;20.40;56.20;;;;;;5031875;28;20164;-65
2022/09/25 11:05:22;;;;;;;3.65;2.72;;;20.50;56.40;;;;;;5024327;28;20107;-66
2022/09/25 11:07:53;;;;;;;3.75;2.70;;;20.40;56.30;;;;;;5031080;28;20447;-66
2022/09/25 11:10:21;;;;;;;4.22;3.00;;;20.40;56.30;;;;;;5031803;28;20026;-66
2022/09/25 11:12:48;;;;;;;4.38;3.00;;;20.40;56.30;;;;;;5032236;28;20385;-66
2022/09/25 11:15:19;;;;;;;4.18;3.10;;;20.40;56.30;;;;;;5032107;28;20029;-66
2022/09/25 11:17:48;;;;;;;4.60;3.15;;;20.40;56.30;;;;;;5031347;28;20026;-66
2022/09/25 11:20:15;;;;;;;4.40;3.05;;;20.40;56.40;;;;;;5031845;28;20018;-66
2022/09/25 11:22:53;;;;;;;3.95;3.00;;;20.40;56.40;;;;;;5029155;28;20505;-66
2022/09/25 11:26:04;;;;;;;4.50;3.42;;;20.40;56.40;;;;;;5032162;28;20025;-66
2022/09/25 11:28:53;;;;;;;4.45;3.63;;;20.40;56.40;;;;;;5030697;28;20033;-66
2022/09/25 11:32:03;;;;;;;4.30;2.97;;;20.40;56.40;;;;;;5030403;28;20077;-66
2022/09/25 11:34:43;;;;;;;4.35;3.10;;;20.40;56.50;;;;;;5031208;28;20033;-66
2022/09/25 11:37:29;;;;;;;4.40;2.90;;;20.40;56.40;;;;;;5030602;28;20036;-66
2022/09/25 11:43:04;;;;;;;3.92;2.80;;;20.40;56.50;;;;;;5030546;28;20791;-66
2022/09/25 11:45:46;;;;;;;3.45;2.55;;;20.40;56.50;;;;;;5031665;28;20107;-66
2022/09/25 11:48:18;;;;;;;4.15;3.22;;;20.40;56.50;;;;;;5029850;28;20037;-66
2022/09/25 11:51:08;;;;;;;4.22;2.92;;;20.40;56.50;;;;;;5030867;28;20036;-66
2022/09/25 11:54:00;;;;;;;4.15;3.05;;;20.40;56.50;;;;;;5030765;28;20041;-66
2022/09/25 11:56:34;;;;;;;4.60;3.00;;;20.40;56.60;;;;;;5030570;28;20481;-66
2022/09/25 11:59:16;;;;;;;4.03;2.55;;;20.40;56.50;;;;;;5031303;28;20483;-66
2022/09/25 12:01:51;;;;;;;3.55;2.90;;;20.40;56.60;;;;;;5030789;28;20029;-66
2022/09/25 12:04:43;;;;;;;3.80;3.03;;;20.40;56.60;;;;;;5031189;28;20029;-66
2022/09/25 12:07:14;;;;;;;4.22;2.92;;;20.40;56.60;;;;;;5030552;28;20033;-66
2022/09/25 12:10:13;;;;;;;4.10;2.90;;;20.40;56.60;;;;;;5031145;28;20116;-66
2022/09/25 12:13:06;;;;;;;4.28;2.63;;;20.40;56.60;;;;;;5030981;28;20032;-66
2022/09/25 12:15:50;;;;;;;3.22;2.45;;;20.40;56.60;;;;;;5030738;28;20057;-66
2022/09/25 12:18:21;;;;;;;4.35;3.05;;;20.40;56.60;;;;;;5030172;28;20112;-66
2022/09/25 12:21:05;;;;;;;3.92;2.90;;;20.40;56.60;;;;;;5029729;28;20483;-66
2022/09/25 12:23:34;;;;;;;4.00;2.92;;;20.40;56.60;;;;;;5030465;28;20025;-66
2022/09/25 12:26:15;;;;;;;4.35;3.05;;;20.40;56.60;;;;;;5030884;28;20017;-66
2022/09/25 12:28:59;;;;;;;4.00;2.80;;;20.40;56.60;;;;;;5030943;28;20049;-66
2022/09/25 12:31:50;;;;;;;3.67;2.78;;;20.40;56.60;;;;;;5030185;28;20096;-66
2022/09/25 12:34:37;;;;;;;3.28;2.38;;;20.40;56.60;;;;;;5030830;28;20173;-66
2022/09/25 12:37:14;;;;;;;3.25;2.40;;;20.40;56.70;;;;;;5029911;28;20029;-66
2022/09/25 12:39:49;;;;;;;3.33;2.40;;;20.40;56.60;;;;;;5029488;28;20041;-66
2022/09/25 12:42:30;;;;;;;3.92;2.83;;;20.40;56.60;;;;;;5030439;28;20026;-68
2022/09/25 12:45:04;;;;;;;4.28;2.83;;;20.40;56.60;;;;;;5030632;28;20481;-68
2022/09/25 12:47:40;;;;;;;3.70;2.75;;;20.40;56.60;;;;;;5030209;28;20064;-68
2022/09/25 12:50:19;;;;;;;3.38;2.50;;;20.40;56.60;;;;;;5029966;28;20018;-68
2022/09/25 12:52:51;;;;;;;3.70;2.58;;;20.40;56.60;;;;;;5030622;28;20021;-68
2022/09/25 12:55:25;;;;;;;3.70;2.70;;;20.50;56.60;;;;;;5002219;28;20084;-68
2022/09/25 12:58:20;;;;;;;4.30;2.92;;;20.50;56.60;;;;;;5028841;28;20516;-68
2022/09/25 13:00:49;;;;;;;4.68;2.83;;;20.40;56.60;;;;;;5030138;28;20401;-68
2022/09/25 13:03:27;;;;;;;3.55;2.53;;;20.40;56.80;;;;;;5030614;28;20495;-68
2022/09/25 13:06:11;;;;;;;3.38;2.45;;;20.50;57.20;;;;;;5029592;28;20480;-68
2022/09/25 13:08:50;;;;;;;3.83;2.63;;;20.50;57.30;;;;;;5004921;28;20056;-67
2022/09/25 13:11:28;;;;;;;3.60;2.47;;;20.50;57.20;;;;;;5030231;28;20033;-68
2022/09/25 13:13:55;;;;;;;3.63;2.58;;;20.60;57.10;;;;;;5030422;28;20029;-68
2022/09/25 13:16:21;;;;;;;3.85;2.65;;;20.60;56.90;;;;;;5030425;28;20045;-69
2022/09/25 13:18:48;;;;;;;4.78;2.70;;;20.70;56.90;;;;;;5004280;28;20499;-69
2022/09/25 13:21:25;;;;;;;3.33;2.33;;;20.70;57.30;;;;;;5010305;28;20033;-69
2022/09/25 13:23:53;;;;;;;3.45;2.70;;;20.70;56.80;;;;;;5029488;28;20393;-69
2022/09/25 13:26:26;;;;;;;4.13;3.00;;;20.80;56.60;;;;;;5030541;28;20116;-69
2022/09/25 13:29:21;;;;;;;3.85;2.90;;;20.80;56.50;;;;;;5030288;28;20567;-69
2022/09/25 13:31:47;;;;;;;3.53;2.65;;;20.90;56.40;;;;;;5031085;28;20462;-69